sensor_id;sensor_type;location;lat;lon;timestamp;pressure;altitude;pressure_sealevel;temperature
68911;BMP180;55953;51.650;-0.522;2023-06-05T00:01:54;101705.60;;;10.90
68911;BMP180;55953;51.650;-0.522;2023-06-05T00:04:22;101707.20;;;10.80
68911;BMP180;55953;51.650;-0.522;2023-06-05T00:06:51;101708.80;;;10.82
68911;BMP180;55953;51.650;-0.522;2023-06-05T00:09:19;101712.60;;;10.80
68911;BMP180;55953;51.650;-0.522;2023-06-05T00:11:47;101709.20;;;10.78
68911;BMP180;55953;51.650;-0.522;2023-06-05T00:14:15;101708.40;;;10.70
68911;BMP180;55953;51.650;-0.522;2023-06-05T00:16:43;101710.00;;;10.60
68911;BMP180;55953;51.650;-0.522;2023-06-05T00:19:12;101709.20;;;10.58
68911;BMP180;55953;51.650;-0.522;2023-06-05T00:21:39;101710.80;;;10.50
68911;BMP180;55953;51.650;-0.522;2023-06-05T00:24:07;101713.60;;;10.50
68911;BMP180;55953;51.650;-0.522;2023-06-05T00:26:35;101713.20;;;10.46
68911;BMP180;55953;51.650;-0.522;2023-06-05T00:29:03;101712.80;;;10.40
68911;BMP180;55953;51.650;-0.522;2023-06-05T00:31:33;101713.60;;;10.34
68911;BMP180;55953;51.650;-0.522;2023-06-05T00:34:01;101712.40;;;10.30
68911;BMP180;55953;51.650;-0.522;2023-06-05T00:36:29;101711.00;;;10.30
68911;BMP180;55953;51.650;-0.522;2023-06-05T00:38:57;101715.80;;;10.20
68911;BMP180;55953;51.650;-0.522;2023-06-05T00:41:25;101707.60;;;10.20
68911;BMP180;55953;51.650;-0.522;2023-06-05T00:43:53;101701.00;;;10.12
68911;BMP180;55953;51.650;-0.522;2023-06-05T00:46:21;101699.60;;;10.10
68911;BMP180;55953;51.650;-0.522;2023-06-05T00:48:50;101701.00;;;10.10
68911;BMP180;55953;51.650;-0.522;2023-06-05T00:51:19;101702.20;;;10.08
68911;BMP180;55953;51.650;-0.522;2023-06-05T00:53:48;101708.20;;;10.00
68911;BMP180;55953;51.650;-0.522;2023-06-05T00:56:16;101706.00;;;10.00
68911;BMP180;55953;51.650;-0.522;2023-06-05T00:58:48;101708.60;;;10.00
68911;BMP180;55953;51.650;-0.522;2023-06-05T01:01:17;101707.00;;;10.04
68911;BMP180;55953;51.650;-0.522;2023-06-05T01:03:45;101704.80;;;10.10
68911;BMP180;55953;51.650;-0.522;2023-06-05T01:06:13;101702.00;;;10.18
68911;BMP180;55953;51.650;-0.522;2023-06-05T01:08:44;101698.80;;;10.20
68911;BMP180;55953;51.650;-0.522;2023-06-05T01:11:28;101705.20;;;10.30
68911;BMP180;55953;51.650;-0.522;2023-06-05T01:16:39;101696.80;;;10.48
68911;BMP180;55953;51.650;-0.522;2023-06-05T01:19:13;101693.60;;;10.50
68911;BMP180;55953;51.650;-0.522;2023-06-05T01:21:42;101694.80;;;10.60
68911;BMP180;55953;51.650;-0.522;2023-06-05T01:24:11;101690.40;;;10.60
68911;BMP180;55953;51.650;-0.522;2023-06-05T01:27:15;101688.00;;;10.62
68911;BMP180;55953;51.650;-0.522;2023-06-05T01:30:01;101687.80;;;10.70
68911;BMP180;55953;51.650;-0.522;2023-06-05T01:32:40;101690.00;;;10.70
68911;BMP180;55953;51.650;-0.522;2023-06-05T01:35:13;101683.40;;;10.70
68911;BMP180;55953;51.650;-0.522;2023-06-05T01:37:48;101683.20;;;10.74
68911;BMP180;55953;51.650;-0.522;2023-06-05T01:40:22;101680.60;;;10.80
68911;BMP180;55953;51.650;-0.522;2023-06-05T01:42:52;101676.20;;;10.80
68911;BMP180;55953;51.650;-0.522;2023-06-05T01:45:21;101681.80;;;10.70
68911;BMP180;55953;51.650;-0.522;2023-06-05T01:47:50;101674.40;;;10.70
68911;BMP180;55953;51.650;-0.522;2023-06-05T01:50:18;101674.60;;;10.80
68911;BMP180;55953;51.650;-0.522;2023-06-05T01:52:47;101678.40;;;10.80
68911;BMP180;55953;51.650;-0.522;2023-06-05T01:55:18;101672.80;;;10.80
68911;BMP180;55953;51.650;-0.522;2023-06-05T01:57:48;101669.20;;;10.90
68911;BMP180;55953;51.650;-0.522;2023-06-05T02:00:16;101667.60;;;10.90
68911;BMP180;55953;51.650;-0.522;2023-06-05T02:02:48;101670.80;;;10.90
68911;BMP180;55953;51.650;-0.522;2023-06-05T02:05:17;101664.20;;;10.90
68911;BMP180;55953;51.650;-0.522;2023-06-05T02:07:49;101667.00;;;10.86
68911;BMP180;55953;51.650;-0.522;2023-06-05T02:10:21;101663.60;;;10.90
68911;BMP180;55953;51.650;-0.522;2023-06-05T02:12:51;101661.00;;;10.86
68911;BMP180;55953;51.650;-0.522;2023-06-05T02:15:19;101656.40;;;10.90
68911;BMP180;55953;51.650;-0.522;2023-06-05T02:17:47;101653.80;;;10.90
68911;BMP180;55953;51.650;-0.522;2023-06-05T02:20:25;101652.20;;;10.80
68911;BMP180;55953;51.650;-0.522;2023-06-05T02:22:53;101650.60;;;10.80
68911;BMP180;55953;51.650;-0.522;2023-06-05T02:25:23;101651.80;;;10.80
68911;BMP180;55953;51.650;-0.522;2023-06-05T02:27:55;101645.20;;;10.80
68911;BMP180;55953;51.650;-0.522;2023-06-05T02:30:23;101645.20;;;10.80
68911;BMP180;55953;51.650;-0.522;2023-06-05T02:32:52;101642.80;;;10.80
68911;BMP180;55953;51.650;-0.522;2023-06-05T02:35:29;101637.60;;;10.84
68911;BMP180;55953;51.650;-0.522;2023-06-05T02:37:57;101641.40;;;10.90
68911;BMP180;55953;51.650;-0.522;2023-06-05T02:40:25;101633.60;;;10.90
68911;BMP180;55953;51.650;-0.522;2023-06-05T02:42:53;101631.00;;;10.90
68911;BMP180;55953;51.650;-0.522;2023-06-05T02:45:23;101629.00;;;10.90
68911;BMP180;55953;51.650;-0.522;2023-06-05T02:47:51;101626.20;;;10.90
68911;BMP180;55953;51.650;-0.522;2023-06-05T02:50:19;101632.80;;;10.90
68911;BMP180;55953;51.650;-0.522;2023-06-05T02:52:50;101629.80;;;10.90
68911;BMP180;55953;51.650;-0.522;2023-06-05T02:55:24;101627.00;;;10.90
68911;BMP180;55953;51.650;-0.522;2023-06-05T02:57:53;101623.40;;;10.90
68911;BMP180;55953;51.650;-0.522;2023-06-05T03:00:25;101625.20;;;10.90
68911;BMP180;55953;51.650;-0.522;2023-06-05T03:02:54;101620.40;;;10.90
68911;BMP180;55953;51.650;-0.522;2023-06-05T03:05:27;101620.20;;;10.90
68911;BMP180;55953;51.650;-0.522;2023-06-05T03:08:00;101619.60;;;10.90
68911;BMP180;55953;51.650;-0.522;2023-06-05T03:10:29;101615.40;;;10.90
68911;BMP180;55953;51.650;-0.522;2023-06-05T03:12:57;101621.20;;;10.90
68911;BMP180;55953;51.650;-0.522;2023-06-05T03:15:28;101611.80;;;10.90
68911;BMP180;55953;51.650;-0.522;2023-06-05T03:17:56;101616.40;;;10.96
68911;BMP180;55953;51.650;-0.522;2023-06-05T03:20:25;101617.40;;;11.00
68911;BMP180;55953;51.650;-0.522;2023-06-05T03:22:53;101616.80;;;10.90
68911;BMP180;55953;51.650;-0.522;2023-06-05T03:25:22;101617.20;;;10.90
68911;BMP180;55953;51.650;-0.522;2023-06-05T03:27:53;101616.80;;;10.90
68911;BMP180;55953;51.650;-0.522;2023-06-05T03:30:21;101619.60;;;11.00
68911;BMP180;55953;51.650;-0.522;2023-06-05T03:32:51;101617.20;;;11.00
68911;BMP180;55953;51.650;-0.522;2023-06-05T03:35:19;101618.40;;;11.00
68911;BMP180;55953;51.650;-0.522;2023-06-05T03:37:47;101620.20;;;11.00
68911;BMP180;55953;51.650;-0.522;2023-06-05T03:40:15;101616.60;;;11.08
68911;BMP180;55953;51.650;-0.522;2023-06-05T03:42:43;101614.80;;;11.10
68911;BMP180;55953;51.650;-0.522;2023-06-05T03:45:12;101617.00;;;11.10
68911;BMP180;55953;51.650;-0.522;2023-06-05T03:47:41;101612.00;;;11.10
68911;BMP180;55953;51.650;-0.522;2023-06-05T03:50:11;101612.80;;;11.16
68911;BMP180;55953;51.650;-0.522;2023-06-05T03:52:42;101614.40;;;11.20
68911;BMP180;55953;51.650;-0.522;2023-06-05T03:55:11;101611.40;;;11.20
68911;BMP180;55953;51.650;-0.522;2023-06-05T03:57:39;101608.20;;;11.20
68911;BMP180;55953;51.650;-0.522;2023-06-05T04:00:08;101608.00;;;11.20
68911;BMP180;55953;51.650;-0.522;2023-06-05T04:02:40;101615.20;;;11.20
68911;BMP180;55953;51.650;-0.522;2023-06-05T04:05:11;101611.40;;;11.20
68911;BMP180;55953;51.650;-0.522;2023-06-05T04:07:40;101615.80;;;11.20
68911;BMP180;55953;51.650;-0.522;2023-06-05T04:10:08;101617.00;;;11.20
68911;BMP180;55953;51.650;-0.522;2023-06-05T04:12:36;101610.00;;;11.30
68911;BMP180;55953;51.650;-0.522;2023-06-05T04:15:06;101614.80;;;11.30
68911;BMP180;55953;51.650;-0.522;2023-06-05T04:17:34;101610.20;;;11.20
68911;BMP180;55953;51.650;-0.522;2023-06-05T04:20:06;101612.20;;;11.30
68911;BMP180;55953;51.650;-0.522;2023-06-05T04:22:37;101610.40;;;11.40
68911;BMP180;55953;51.650;-0.522;2023-06-05T04:25:06;101608.80;;;11.40
68911;BMP180;55953;51.650;-0.522;2023-06-05T04:27:34;101614.60;;;11.40
68911;BMP180;55953;51.650;-0.522;2023-06-05T04:30:05;101610.20;;;11.30
68911;BMP180;55953;51.650;-0.522;2023-06-05T04:32:35;101609.00;;;11.30
68911;BMP180;55953;51.650;-0.522;2023-06-05T04:35:08;101605.80;;;11.30
68911;BMP180;55953;51.650;-0.522;2023-06-05T04:37:39;101608.00;;;11.30
68911;BMP180;55953;51.650;-0.522;2023-06-05T04:40:08;101609.60;;;11.32
68911;BMP180;55953;51.650;-0.522;2023-06-05T04:42:39;101609.40;;;11.40
68911;BMP180;55953;51.650;-0.522;2023-06-05T04:45:08;101614.00;;;11.40
68911;BMP180;55953;51.650;-0.522;2023-06-05T04:47:38;101613.40;;;11.46
68911;BMP180;55953;51.650;-0.522;2023-06-05T04:50:06;101619.40;;;11.40
68911;BMP180;55953;51.650;-0.522;2023-06-05T04:52:36;101615.80;;;11.30
68911;BMP180;55953;51.650;-0.522;2023-06-05T04:55:08;101611.60;;;11.30
68911;BMP180;55953;51.650;-0.522;2023-06-05T04:57:36;101618.00;;;11.40
68911;BMP180;55953;51.650;-0.522;2023-06-05T05:00:06;101616.00;;;11.40
68911;BMP180;55953;51.650;-0.522;2023-06-05T05:02:36;101617.80;;;11.50
68911;BMP180;55953;51.650;-0.522;2023-06-05T05:05:05;101615.00;;;11.50
68911;BMP180;55953;51.650;-0.522;2023-06-05T05:07:33;101614.20;;;11.50
68911;BMP180;55953;51.650;-0.522;2023-06-05T05:10:04;101619.60;;;11.60
68911;BMP180;55953;51.650;-0.522;2023-06-05T05:12:32;101613.20;;;11.62
68911;BMP180;55953;51.650;-0.522;2023-06-05T05:15:02;101615.80;;;11.62
68911;BMP180;55953;51.650;-0.522;2023-06-05T05:17:31;101616.00;;;11.70
68911;BMP180;55953;51.650;-0.522;2023-06-05T05:19:59;101612.20;;;11.70
68911;BMP180;55953;51.650;-0.522;2023-06-05T05:22:28;101617.00;;;11.76
68911;BMP180;55953;51.650;-0.522;2023-06-05T05:24:56;101616.00;;;11.80
68911;BMP180;55953;51.650;-0.522;2023-06-05T05:27:24;101613.40;;;11.86
68911;BMP180;55953;51.650;-0.522;2023-06-05T05:29:52;101610.40;;;11.90
68911;BMP180;55953;51.650;-0.522;2023-06-05T05:32:20;101615.00;;;11.90
68911;BMP180;55953;51.650;-0.522;2023-06-05T05:34:48;101613.40;;;12.00
68911;BMP180;55953;51.650;-0.522;2023-06-05T05:37:18;101612.80;;;12.00
68911;BMP180;55953;51.650;-0.522;2023-06-05T05:39:46;101611.80;;;12.00
68911;BMP180;55953;51.650;-0.522;2023-06-05T05:42:15;101615.20;;;12.06
68911;BMP180;55953;51.650;-0.522;2023-06-05T05:44:44;101616.00;;;12.10
68911;BMP180;55953;51.650;-0.522;2023-06-05T05:47:13;101607.80;;;12.20
68911;BMP180;55953;51.650;-0.522;2023-06-05T05:49:41;101608.20;;;12.20
68911;BMP180;55953;51.650;-0.522;2023-06-05T05:52:09;101608.40;;;12.30
68911;BMP180;55953;51.650;-0.522;2023-06-05T05:54:37;101608.00;;;12.30
68911;BMP180;55953;51.650;-0.522;2023-06-05T05:57:05;101613.00;;;12.30
68911;BMP180;55953;51.650;-0.522;2023-06-05T05:59:34;101617.00;;;12.30
68911;BMP180;55953;51.650;-0.522;2023-06-05T06:02:03;101617.80;;;12.28
68911;BMP180;55953;51.650;-0.522;2023-06-05T06:04:38;101618.40;;;12.20
68911;BMP180;55953;51.650;-0.522;2023-06-05T06:07:07;101614.00;;;12.26
68911;BMP180;55953;51.650;-0.522;2023-06-05T06:09:35;101616.20;;;12.20
68911;BMP180;55953;51.650;-0.522;2023-06-05T06:12:04;101611.80;;;12.26
68911;BMP180;55953;51.650;-0.522;2023-06-05T06:14:34;101606.40;;;12.30
68911;BMP180;55953;51.650;-0.522;2023-06-05T06:17:04;101613.40;;;12.30
68911;BMP180;55953;51.650;-0.522;2023-06-05T06:19:33;101616.80;;;12.20
68911;BMP180;55953;51.650;-0.522;2023-06-05T06:22:02;101613.40;;;12.20
68911;BMP180;55953;51.650;-0.522;2023-06-05T06:24:29;101610.80;;;12.36
68911;BMP180;55953;51.650;-0.522;2023-06-05T06:26:57;101616.00;;;12.40
68911;BMP180;55953;51.650;-0.522;2023-06-05T06:29:25;101611.20;;;12.36
68911;BMP180;55953;51.650;-0.522;2023-06-05T06:31:55;101619.60;;;12.50
68911;BMP180;55953;51.650;-0.522;2023-06-05T06:34:23;101612.60;;;12.50
68911;BMP180;55953;51.650;-0.522;2023-06-05T06:36:52;101618.20;;;12.60
68911;BMP180;55953;51.650;-0.522;2023-06-05T06:39:20;101619.00;;;12.60
68911;BMP180;55953;51.650;-0.522;2023-06-05T06:41:49;101623.60;;;12.60
68911;BMP180;55953;51.650;-0.522;2023-06-05T06:44:21;101624.20;;;12.60
68911;BMP180;55953;51.650;-0.522;2023-06-05T06:46:49;101627.00;;;12.64
68911;BMP180;55953;51.650;-0.522;2023-06-05T06:49:17;101625.40;;;12.60
68911;BMP180;55953;51.650;-0.522;2023-06-05T06:51:45;101622.40;;;12.70
68911;BMP180;55953;51.650;-0.522;2023-06-05T06:54:13;101624.00;;;12.80
68911;BMP180;55953;51.650;-0.522;2023-06-05T06:56:41;101627.40;;;12.80
68911;BMP180;55953;51.650;-0.522;2023-06-05T06:59:14;101627.20;;;12.82
68911;BMP180;55953;51.650;-0.522;2023-06-05T07:01:45;101627.20;;;12.90
68911;BMP180;55953;51.650;-0.522;2023-06-05T07:04:15;101629.00;;;12.90
68911;BMP180;55953;51.650;-0.522;2023-06-05T07:06:44;101630.20;;;12.90
68911;BMP180;55953;51.650;-0.522;2023-06-05T07:09:12;101634.80;;;12.90
68911;BMP180;55953;51.650;-0.522;2023-06-05T07:11:40;101633.40;;;12.86
68911;BMP180;55953;51.650;-0.522;2023-06-05T07:14:08;101635.00;;;12.90
68911;BMP180;55953;51.650;-0.522;2023-06-05T07:16:36;101634.40;;;12.92
68911;BMP180;55953;51.650;-0.522;2023-06-05T07:19:04;101635.40;;;12.90
68911;BMP180;55953;51.650;-0.522;2023-06-05T07:21:31;101633.20;;;12.92
68911;BMP180;55953;51.650;-0.522;2023-06-05T07:24:05;101638.00;;;12.98
68911;BMP180;55953;51.650;-0.522;2023-06-05T07:26:34;101638.60;;;13.00
68911;BMP180;55953;51.650;-0.522;2023-06-05T07:29:02;101645.20;;;12.90
68911;BMP180;55953;51.650;-0.522;2023-06-05T07:31:30;101646.60;;;13.00
68911;BMP180;55953;51.650;-0.522;2023-06-05T07:33:58;101649.80;;;13.16
68911;BMP180;55953;51.650;-0.522;2023-06-05T07:36:26;101658.60;;;13.30
68911;BMP180;55953;51.650;-0.522;2023-06-05T07:38:54;101656.80;;;13.40
68911;BMP180;55953;51.650;-0.522;2023-06-05T07:41:22;101658.80;;;13.40
68911;BMP180;55953;51.650;-0.522;2023-06-05T07:43:50;101660.80;;;13.50
68911;BMP180;55953;51.650;-0.522;2023-06-05T07:46:18;101665.40;;;13.50
68911;BMP180;55953;51.650;-0.522;2023-06-05T07:48:46;101668.20;;;13.60
68911;BMP180;55953;51.650;-0.522;2023-06-05T07:51:14;101666.00;;;13.60
68911;BMP180;55953;51.650;-0.522;2023-06-05T07:53:45;101667.40;;;13.60
68911;BMP180;55953;51.650;-0.522;2023-06-05T07:56:13;101668.40;;;13.60
68911;BMP180;55953;51.650;-0.522;2023-06-05T07:58:44;101670.60;;;13.60
68911;BMP180;55953;51.650;-0.522;2023-06-05T08:01:12;101666.20;;;13.66
68911;BMP180;55953;51.650;-0.522;2023-06-05T08:03:43;101666.00;;;13.78
68911;BMP180;55953;51.650;-0.522;2023-06-05T08:06:12;101667.00;;;13.80
68911;BMP180;55953;51.650;-0.522;2023-06-05T08:08:41;101665.00;;;13.70
68911;BMP180;55953;51.650;-0.522;2023-06-05T08:11:10;101671.60;;;13.60
68911;BMP180;55953;51.650;-0.522;2023-06-05T08:13:39;101668.60;;;13.70
68911;BMP180;55953;51.650;-0.522;2023-06-05T08:16:06;101668.20;;;13.90
68911;BMP180;55953;51.650;-0.522;2023-06-05T08:18:34;101666.20;;;14.00
68911;BMP180;55953;51.650;-0.522;2023-06-05T08:21:03;101660.60;;;13.90
68911;BMP180;55953;51.650;-0.522;2023-06-05T08:23:31;101663.00;;;14.00
68911;BMP180;55953;51.650;-0.522;2023-06-05T08:25:58;101659.80;;;14.14
68911;BMP180;55953;51.650;-0.522;2023-06-05T08:28:26;101656.20;;;14.22
68911;BMP180;55953;51.650;-0.522;2023-06-05T08:30:54;101655.20;;;14.30
68911;BMP180;55953;51.650;-0.522;2023-06-05T08:33:24;101654.40;;;14.22
68911;BMP180;55953;51.650;-0.522;2023-06-05T08:35:52;101655.00;;;14.10
68911;BMP180;55953;51.650;-0.522;2023-06-05T08:38:20;101662.80;;;13.92
68911;BMP180;55953;51.650;-0.522;2023-06-05T08:41:01;101661.40;;;13.90
68911;BMP180;55953;51.650;-0.522;2023-06-05T08:43:29;101659.80;;;14.00
68911;BMP180;55953;51.650;-0.522;2023-06-05T08:45:57;101658.60;;;14.26
68911;BMP180;55953;51.650;-0.522;2023-06-05T08:48:25;101666.80;;;14.48
68911;BMP180;55953;51.650;-0.522;2023-06-05T08:50:53;101664.40;;;14.60
68911;BMP180;55953;51.650;-0.522;2023-06-05T08:53:24;101660.00;;;14.70
68911;BMP180;55953;51.650;-0.522;2023-06-05T08:55:54;101661.80;;;14.70
68911;BMP180;55953;51.650;-0.522;2023-06-05T08:58:24;101664.80;;;14.74
68911;BMP180;55953;51.650;-0.522;2023-06-05T09:00:52;101658.40;;;14.60
68911;BMP180;55953;51.650;-0.522;2023-06-05T09:03:20;101657.20;;;14.60
68911;BMP180;55953;51.650;-0.522;2023-06-05T09:05:49;101663.20;;;14.80
68911;BMP180;55953;51.650;-0.522;2023-06-05T09:08:19;101661.20;;;14.92
68911;BMP180;55953;51.650;-0.522;2023-06-05T09:10:47;101659.00;;;15.10
68911;BMP180;55953;51.650;-0.522;2023-06-05T09:13:15;101657.80;;;15.20
68911;BMP180;55953;51.650;-0.522;2023-06-05T09:15:50;101655.60;;;15.40
68911;BMP180;55953;51.650;-0.522;2023-06-05T09:18:18;101655.20;;;15.50
68911;BMP180;55953;51.650;-0.522;2023-06-05T09:20:46;101648.00;;;15.70
68911;BMP180;55953;51.650;-0.522;2023-06-05T09:23:22;101649.00;;;15.90
68911;BMP180;55953;51.650;-0.522;2023-06-05T09:26:00;101647.60;;;16.00
68911;BMP180;55953;51.650;-0.522;2023-06-05T09:28:29;101646.00;;;15.90
68911;BMP180;55953;51.650;-0.522;2023-06-05T09:31:03;101641.40;;;16.00
68911;BMP180;55953;51.650;-0.522;2023-06-05T09:33:33;101637.80;;;16.06
68911;BMP180;55953;51.650;-0.522;2023-06-05T09:36:08;101636.40;;;16.16
68911;BMP180;55953;51.650;-0.522;2023-06-05T09:38:40;101633.40;;;16.18
68911;BMP180;55953;51.650;-0.522;2023-06-05T09:41:10;101640.00;;;16.20
68911;BMP180;55953;51.650;-0.522;2023-06-05T09:43:38;101639.80;;;16.10
68911;BMP180;55953;51.650;-0.522;2023-06-05T09:46:14;101642.60;;;16.10
68911;BMP180;55953;51.650;-0.522;2023-06-05T09:48:52;101648.00;;;15.90
68911;BMP180;55953;51.650;-0.522;2023-06-05T09:51:21;101651.80;;;15.98
68911;BMP180;55953;51.650;-0.522;2023-06-05T09:53:50;101647.80;;;16.00
68911;BMP180;55953;51.650;-0.522;2023-06-05T09:56:21;101650.00;;;15.98
68911;BMP180;55953;51.650;-0.522;2023-06-05T09:58:52;101649.20;;;15.90
68911;BMP180;55953;51.650;-0.522;2023-06-05T10:01:23;101652.00;;;15.92
68911;BMP180;55953;51.650;-0.522;2023-06-05T10:03:59;101653.00;;;16.00
68911;BMP180;55953;51.650;-0.522;2023-06-05T10:06:27;101648.80;;;16.10
68911;BMP180;55953;51.650;-0.522;2023-06-05T10:08:56;101648.00;;;16.10
68911;BMP180;55953;51.650;-0.522;2023-06-05T10:11:25;101650.40;;;16.24
68911;BMP180;55953;51.650;-0.522;2023-06-05T10:13:55;101649.60;;;16.50
68911;BMP180;55953;51.650;-0.522;2023-06-05T10:16:28;101651.40;;;16.60
68911;BMP180;55953;51.650;-0.522;2023-06-05T10:18:58;101650.00;;;16.60
68911;BMP180;55953;51.650;-0.522;2023-06-05T10:21:27;101652.60;;;16.70
68911;BMP180;55953;51.650;-0.522;2023-06-05T10:24:06;101647.40;;;16.90
68911;BMP180;55953;51.650;-0.522;2023-06-05T10:36:07;101651.80;;;17.10
68911;BMP180;55953;51.650;-0.522;2023-06-05T10:38:39;101645.00;;;17.10
68911;BMP180;55953;51.650;-0.522;2023-06-05T10:41:07;101649.00;;;17.30
68911;BMP180;55953;51.650;-0.522;2023-06-05T10:43:47;101649.80;;;17.40
68911;BMP180;55953;51.650;-0.522;2023-06-05T10:46:39;101649.40;;;17.60
68911;BMP180;55953;51.650;-0.522;2023-06-05T10:51:50;101645.40;;;17.60
68911;BMP180;55953;51.650;-0.522;2023-06-05T10:56:52;101638.00;;;17.60
68911;BMP180;55953;51.650;-0.522;2023-06-05T11:07:29;101627.40;;;17.52
68911;BMP180;55953;51.650;-0.522;2023-06-05T11:10:12;101631.00;;;17.60
68911;BMP180;55953;51.650;-0.522;2023-06-05T11:17:43;101624.60;;;17.90
68911;BMP180;55953;51.650;-0.522;2023-06-05T11:28:03;101618.40;;;18.80
68911;BMP180;55953;51.650;-0.522;2023-06-05T11:30:44;101613.20;;;18.80
68911;BMP180;55953;51.650;-0.522;2023-06-05T11:33:18;101612.00;;;18.98
68911;BMP180;55953;51.650;-0.522;2023-06-05T11:35:50;101613.20;;;19.20
68911;BMP180;55953;51.650;-0.522;2023-06-05T11:38:22;101609.40;;;19.16
68911;BMP180;55953;51.650;-0.522;2023-06-05T11:40:54;101601.00;;;18.90
68911;BMP180;55953;51.650;-0.522;2023-06-05T11:43:23;101603.80;;;19.00
68911;BMP180;55953;51.650;-0.522;2023-06-05T11:45:57;101605.80;;;19.20
68911;BMP180;55953;51.650;-0.522;2023-06-05T11:48:26;101607.20;;;18.96
68911;BMP180;55953;51.650;-0.522;2023-06-05T11:51:01;101607.20;;;19.06
68911;BMP180;55953;51.650;-0.522;2023-06-05T11:53:31;101604.00;;;19.30
68911;BMP180;55953;51.650;-0.522;2023-06-05T11:55:59;101600.00;;;19.52
68911;BMP180;55953;51.650;-0.522;2023-06-05T11:58:38;101596.20;;;19.80
68911;BMP180;55953;51.650;-0.522;2023-06-05T12:01:13;101591.40;;;19.90
68911;BMP180;55953;51.650;-0.522;2023-06-05T12:03:46;101596.60;;;20.00
68911;BMP180;55953;51.650;-0.522;2023-06-05T12:06:16;101602.20;;;20.10
68911;BMP180;55953;51.650;-0.522;2023-06-05T12:08:45;101594.60;;;20.20
68911;BMP180;55953;51.650;-0.522;2023-06-05T12:11:26;101594.40;;;20.12
68911;BMP180;55953;51.650;-0.522;2023-06-05T12:13:56;101591.20;;;19.96
68911;BMP180;55953;51.650;-0.522;2023-06-05T12:16:39;101586.60;;;19.60
68911;BMP180;55953;51.650;-0.522;2023-06-05T12:19:16;101593.00;;;19.60
68911;BMP180;55953;51.650;-0.522;2023-06-05T12:21:47;101595.40;;;19.70
68911;BMP180;55953;51.650;-0.522;2023-06-05T12:24:25;101598.60;;;19.80
68911;BMP180;55953;51.650;-0.522;2023-06-05T12:27:04;101597.40;;;19.54
68911;BMP180;55953;51.650;-0.522;2023-06-05T12:29:36;101597.80;;;19.32
68911;BMP180;55953;51.650;-0.522;2023-06-05T12:32:25;101590.60;;;19.36
68911;BMP180;55953;51.650;-0.522;2023-06-05T12:34:54;101596.20;;;19.34
68911;BMP180;55953;51.650;-0.522;2023-06-05T12:37:35;101587.80;;;19.40
68911;BMP180;55953;51.650;-0.522;2023-06-05T12:40:07;101587.00;;;19.40
68911;BMP180;55953;51.650;-0.522;2023-06-05T12:42:41;101584.80;;;19.50
68911;BMP180;55953;51.650;-0.522;2023-06-05T12:45:11;101587.80;;;19.58
68911;BMP180;55953;51.650;-0.522;2023-06-05T12:47:41;101585.40;;;19.40
68911;BMP180;55953;51.650;-0.522;2023-06-05T12:50:11;101580.80;;;19.52
68911;BMP180;55953;51.650;-0.522;2023-06-05T12:52:41;101571.80;;;20.16
68911;BMP180;55953;51.650;-0.522;2023-06-05T12:55:09;101564.80;;;20.72
68911;BMP180;55953;51.650;-0.522;2023-06-05T12:57:39;101567.00;;;20.92
68911;BMP180;55953;51.650;-0.522;2023-06-05T13:00:08;101565.40;;;20.90
68911;BMP180;55953;51.650;-0.522;2023-06-05T13:02:42;101570.20;;;20.82
68911;BMP180;55953;51.650;-0.522;2023-06-05T13:05:15;101560.60;;;20.58
68911;BMP180;55953;51.650;-0.522;2023-06-05T13:07:43;101560.60;;;20.20
68911;BMP180;55953;51.650;-0.522;2023-06-05T13:10:12;101558.80;;;20.20
68911;BMP180;55953;51.650;-0.522;2023-06-05T13:12:40;101559.20;;;20.30
68911;BMP180;55953;51.650;-0.522;2023-06-05T13:15:11;101551.80;;;20.30
68911;BMP180;55953;51.650;-0.522;2023-06-05T13:17:39;101543.00;;;20.30
68911;BMP180;55953;51.650;-0.522;2023-06-05T13:20:07;101542.60;;;20.20
68911;BMP180;55953;51.650;-0.522;2023-06-05T13:22:42;101534.80;;;20.30
68911;BMP180;55953;51.650;-0.522;2023-06-05T13:25:10;101539.80;;;20.40
68911;BMP180;55953;51.650;-0.522;2023-06-05T13:27:38;101542.60;;;20.40
68911;BMP180;55953;51.650;-0.522;2023-06-05T13:30:07;101540.20;;;20.60
68911;BMP180;55953;51.650;-0.522;2023-06-05T13:32:36;101533.80;;;20.70
68911;BMP180;55953;51.650;-0.522;2023-06-05T13:35:07;101536.60;;;21.10
68911;BMP180;55953;51.650;-0.522;2023-06-05T13:37:37;101532.40;;;21.00
68911;BMP180;55953;51.650;-0.522;2023-06-05T13:40:06;101535.00;;;20.80
68911;BMP180;55953;51.650;-0.522;2023-06-05T13:42:38;101529.20;;;20.60
68911;BMP180;55953;51.650;-0.522;2023-06-05T13:45:07;101531.40;;;20.40
68911;BMP180;55953;51.650;-0.522;2023-06-05T13:47:36;101527.80;;;20.54
68911;BMP180;55953;51.650;-0.522;2023-06-05T13:50:04;101525.80;;;20.70
68911;BMP180;55953;51.650;-0.522;2023-06-05T13:52:32;101528.40;;;20.64
68911;BMP180;55953;51.650;-0.522;2023-06-05T13:55:00;101532.00;;;20.40
68911;BMP180;55953;51.650;-0.522;2023-06-05T13:57:28;101513.00;;;20.30
68911;BMP180;55953;51.650;-0.522;2023-06-05T13:59:56;101518.00;;;20.30
68911;BMP180;55953;51.650;-0.522;2023-06-05T14:02:24;101519.20;;;20.20
68911;BMP180;55953;51.650;-0.522;2023-06-05T14:04:53;101513.80;;;20.58
68911;BMP180;55953;51.650;-0.522;2023-06-05T14:07:21;101507.40;;;20.70
68911;BMP180;55953;51.650;-0.522;2023-06-05T14:09:49;101511.80;;;20.80
68911;BMP180;55953;51.650;-0.522;2023-06-05T14:12:17;101511.80;;;20.50
68911;BMP180;55953;51.650;-0.522;2023-06-05T14:14:45;101506.20;;;20.40
68911;BMP180;55953;51.650;-0.522;2023-06-05T14:17:14;101512.80;;;20.40
68911;BMP180;55953;51.650;-0.522;2023-06-05T14:19:42;101512.80;;;20.30
68911;BMP180;55953;51.650;-0.522;2023-06-05T14:22:10;101512.60;;;20.52
68911;BMP180;55953;51.650;-0.522;2023-06-05T14:24:39;101512.60;;;20.86
68911;BMP180;55953;51.650;-0.522;2023-06-05T14:27:08;101505.20;;;20.84
68911;BMP180;55953;51.650;-0.522;2023-06-05T14:29:37;101510.80;;;20.80
68911;BMP180;55953;51.650;-0.522;2023-06-05T14:32:05;101509.20;;;20.90
68911;BMP180;55953;51.650;-0.522;2023-06-05T14:34:33;101506.60;;;20.50
68911;BMP180;55953;51.650;-0.522;2023-06-05T14:37:02;101505.40;;;20.70
68911;BMP180;55953;51.650;-0.522;2023-06-05T14:39:30;101505.60;;;20.90